sensor_id;sensor_type;location;lat;lon;timestamp;P1;durP1;ratioP1;P2;durP2;ratioP2
56949;SDS011;74437;50.080;19.924;2024-03-02T00:00:15;40.58;;;19.45;;
56949;SDS011;74437;50.080;19.924;2024-03-02T00:02:44;45.05;;;20.63;;
56949;SDS011;74437;50.080;19.924;2024-03-02T00:05:10;43.05;;;20.98;;
56949;SDS011;74437;50.080;19.924;2024-03-02T00:07:56;44.42;;;21.20;;
56949;SDS011;74437;50.080;19.924;2024-03-02T00:10:25;43.90;;;20.08;;
56949;SDS011;74437;50.080;19.924;2024-03-02T00:12:54;46.40;;;20.52;;
56949;SDS011;74437;50.080;19.924;2024-03-02T00:17:55;41.78;;;19.58;;
56949;SDS011;74437;50.080;19.924;2024-03-02T00:20:22;44.97;;;19.88;;
56949;SDS011;74437;50.080;19.924;2024-03-02T00:22:48;40.35;;;19.90;;
56949;SDS011;74437;50.080;19.924;2024-03-02T00:25:14;42.53;;;19.35;;
56949;SDS011;74437;50.080;19.924;2024-03-02T00:27:40;42.95;;;19.30;;
56949;SDS011;74437;50.080;19.924;2024-03-02T00:33:19;41.50;;;19.23;;
56949;SDS011;74437;50.080;19.924;2024-03-02T00:35:46;42.97;;;18.85;;
56949;SDS011;74437;50.080;19.924;2024-03-02T00:38:12;39.78;;;19.08;;
56949;SDS011;74437;50.080;19.924;2024-03-02T00:40:39;44.70;;;20.02;;
56949;SDS011;74437;50.080;19.924;2024-03-02T00:43:05;44.80;;;20.50;;
56949;SDS011;74437;50.080;19.924;2024-03-02T00:45:30;46.15;;;20.35;;
56949;SDS011;74437;50.080;19.924;2024-03-02T00:47:56;44.70;;;21.05;;
56949;SDS011;74437;50.080;19.924;2024-03-02T00:50:21;40.35;;;18.58;;
56949;SDS011;74437;50.080;19.924;2024-03-02T00:52:46;48.38;;;21.00;;
56949;SDS011;74437;50.080;19.924;2024-03-02T00:55:13;43.63;;;19.15;;
56949;SDS011;74437;50.080;19.924;2024-03-02T00:57:39;44.95;;;18.77;;
56949;SDS011;74437;50.080;19.924;2024-03-02T01:00:04;41.92;;;19.30;;
56949;SDS011;74437;50.080;19.924;2024-03-02T01:02:35;41.30;;;18.23;;
56949;SDS011;74437;50.080;19.924;2024-03-02T01:05:00;40.40;;;18.73;;
56949;SDS011;74437;50.080;19.924;2024-03-02T01:07:26;44.55;;;20.80;;
56949;SDS011;74437;50.080;19.924;2024-03-02T01:09:51;38.63;;;19.58;;
56949;SDS011;74437;50.080;19.924;2024-03-02T01:12:16;39.78;;;19.02;;
56949;SDS011;74437;50.080;19.924;2024-03-02T01:14:42;38.35;;;18.30;;
56949;SDS011;74437;50.080;19.924;2024-03-02T01:17:07;38.83;;;18.45;;
56949;SDS011;74437;50.080;19.924;2024-03-02T01:19:33;36.03;;;17.25;;
56949;SDS011;74437;50.080;19.924;2024-03-02T01:21:58;40.45;;;17.52;;
56949;SDS011;74437;50.080;19.924;2024-03-02T01:24:23;40.63;;;17.95;;
56949;SDS011;74437;50.080;19.924;2024-03-02T01:26:49;39.90;;;19.23;;
56949;SDS011;74437;50.080;19.924;2024-03-02T01:29:14;37.38;;;18.58;;
56949;SDS011;74437;50.080;19.924;2024-03-02T01:31:39;42.20;;;19.08;;
56949;SDS011;74437;50.080;19.924;2024-03-02T01:34:07;40.33;;;19.70;;
56949;SDS011;74437;50.080;19.924;2024-03-02T01:36:32;40.58;;;17.77;;
56949;SDS011;74437;50.080;19.924;2024-03-02T01:38:58;38.83;;;18.33;;
56949;SDS011;74437;50.080;19.924;2024-03-02T01:41:23;42.60;;;18.67;;
56949;SDS011;74437;50.080;19.924;2024-03-02T01:43:48;46.50;;;19.70;;
56949;SDS011;74437;50.080;19.924;2024-03-02T01:46:14;41.53;;;18.00;;
56949;SDS011;74437;50.080;19.924;2024-03-02T01:48:39;39.58;;;18.55;;
56949;SDS011;74437;50.080;19.924;2024-03-02T01:51:04;39.75;;;18.98;;
56949;SDS011;74437;50.080;19.924;2024-03-02T01:53:31;48.13;;;20.58;;
56949;SDS011;74437;50.080;19.924;2024-03-02T01:55:57;52.15;;;20.60;;
56949;SDS011;74437;50.080;19.924;2024-03-02T01:58:22;40.90;;;18.08;;
56949;SDS011;74437;50.080;19.924;2024-03-02T02:00:48;45.55;;;19.40;;
56949;SDS011;74437;50.080;19.924;2024-03-02T02:03:13;46.70;;;20.63;;
56949;SDS011;74437;50.080;19.924;2024-03-02T02:05:38;43.78;;;19.60;;
56949;SDS011;74437;50.080;19.924;2024-03-02T02:08:04;42.70;;;20.60;;
56949;SDS011;74437;50.080;19.924;2024-03-02T02:10:30;42.53;;;19.17;;
56949;SDS011;74437;50.080;19.924;2024-03-02T02:12:56;47.63;;;20.50;;
56949;SDS011;74437;50.080;19.924;2024-03-02T02:15:25;47.97;;;20.02;;
56949;SDS011;74437;50.080;19.924;2024-03-02T02:17:52;43.65;;;20.63;;
56949;SDS011;74437;50.080;19.924;2024-03-02T02:20:18;39.22;;;19.10;;
56949;SDS011;74437;50.080;19.924;2024-03-02T02:25:38;43.88;;;19.05;;
56949;SDS011;74437;50.080;19.924;2024-03-02T02:28:04;40.60;;;19.90;;
56949;SDS011;74437;50.080;19.924;2024-03-02T02:30:30;37.50;;;17.92;;
56949;SDS011;74437;50.080;19.924;2024-03-02T02:32:57;53.55;;;19.92;;
56949;SDS011;74437;50.080;19.924;2024-03-02T02:35:23;41.92;;;18.58;;
56949;SDS011;74437;50.080;19.924;2024-03-02T02:37:52;47.50;;;19.27;;
56949;SDS011;74437;50.080;19.924;2024-03-02T02:40:18;38.00;;;18.52;;
56949;SDS011;74437;50.080;19.924;2024-03-02T02:42:44;45.97;;;19.13;;
56949;SDS011;74437;50.080;19.924;2024-03-02T02:45:10;40.17;;;18.92;;
56949;SDS011;74437;50.080;19.924;2024-03-02T02:47:38;40.15;;;18.45;;
56949;SDS011;74437;50.080;19.924;2024-03-02T02:50:03;43.65;;;19.63;;
56949;SDS011;74437;50.080;19.924;2024-03-02T02:52:33;40.58;;;19.40;;
56949;SDS011;74437;50.080;19.924;2024-03-02T02:55:02;39.42;;;18.48;;
56949;SDS011;74437;50.080;19.924;2024-03-02T02:57:28;40.65;;;18.48;;
56949;SDS011;74437;50.080;19.924;2024-03-02T02:59:56;42.92;;;20.02;;
56949;SDS011;74437;50.080;19.924;2024-03-02T03:02:21;36.95;;;18.00;;
56949;SDS011;74437;50.080;19.924;2024-03-02T03:04:46;39.80;;;18.70;;
56949;SDS011;74437;50.080;19.924;2024-03-02T03:07:12;40.10;;;18.58;;
56949;SDS011;74437;50.080;19.924;2024-03-02T03:09:37;36.95;;;19.00;;
56949;SDS011;74437;50.080;19.924;2024-03-02T03:12:03;45.63;;;19.13;;
56949;SDS011;74437;50.080;19.924;2024-03-02T03:14:29;42.20;;;19.27;;
56949;SDS011;74437;50.080;19.924;2024-03-02T03:16:54;39.47;;;18.08;;
56949;SDS011;74437;50.080;19.924;2024-03-02T03:19:20;34.35;;;17.08;;
56949;SDS011;74437;50.080;19.924;2024-03-02T03:21:45;40.72;;;17.30;;
56949;SDS011;74437;50.080;19.924;2024-03-02T03:24:10;35.72;;;17.58;;
56949;SDS011;74437;50.080;19.924;2024-03-02T03:26:36;40.95;;;18.17;;
56949;SDS011;74437;50.080;19.924;2024-03-02T03:29:01;47.53;;;19.15;;
56949;SDS011;74437;50.080;19.924;2024-03-02T03:31:27;41.08;;;18.00;;
56949;SDS011;74437;50.080;19.924;2024-03-02T03:33:53;37.33;;;17.55;;
56949;SDS011;74437;50.080;19.924;2024-03-02T03:36:18;40.45;;;17.25;;
56949;SDS011;74437;50.080;19.924;2024-03-02T03:38:44;36.33;;;17.00;;
56949;SDS011;74437;50.080;19.924;2024-03-02T03:41:09;37.20;;;17.52;;
56949;SDS011;74437;50.080;19.924;2024-03-02T03:43:35;44.25;;;18.77;;
56949;SDS011;74437;50.080;19.924;2024-03-02T03:46:00;34.42;;;17.33;;
56949;SDS011;74437;50.080;19.924;2024-03-02T03:48:27;41.63;;;18.23;;
56949;SDS011;74437;50.080;19.924;2024-03-02T03:50:56;36.33;;;17.42;;
56949;SDS011;74437;50.080;19.924;2024-03-02T03:53:21;31.85;;;16.40;;
56949;SDS011;74437;50.080;19.924;2024-03-02T03:55:47;33.95;;;17.35;;
56949;SDS011;74437;50.080;19.924;2024-03-02T03:58:14;34.63;;;16.80;;
56949;SDS011;74437;50.080;19.924;2024-03-02T04:00:41;39.63;;;17.58;;
56949;SDS011;74437;50.080;19.924;2024-03-02T04:03:07;36.63;;;17.77;;
56949;SDS011;74437;50.080;19.924;2024-03-02T04:05:32;40.63;;;19.50;;
56949;SDS011;74437;50.080;19.924;2024-03-02T04:07:57;34.67;;;17.48;;
56949;SDS011;74437;50.080;19.924;2024-03-02T04:10:23;39.92;;;18.10;;
56949;SDS011;74437;50.080;19.924;2024-03-02T04:12:49;36.22;;;17.13;;
56949;SDS011;74437;50.080;19.924;2024-03-02T04:15:15;34.72;;;17.10;;
56949;SDS011;74437;50.080;19.924;2024-03-02T04:17:40;40.70;;;18.17;;
56949;SDS011;74437;50.080;19.924;2024-03-02T04:20:06;38.28;;;16.67;;
56949;SDS011;74437;50.080;19.924;2024-03-02T04:22:32;35.60;;;17.00;;
56949;SDS011;74437;50.080;19.924;2024-03-02T04:24:58;38.17;;;17.13;;
56949;SDS011;74437;50.080;19.924;2024-03-02T04:27:23;34.85;;;17.30;;
56949;SDS011;74437;50.080;19.924;2024-03-02T04:29:49;36.28;;;17.15;;
56949;SDS011;74437;50.080;19.924;2024-03-02T04:32:14;39.17;;;16.85;;
56949;SDS011;74437;50.080;19.924;2024-03-02T04:34:40;36.17;;;17.05;;
56949;SDS011;74437;50.080;19.924;2024-03-02T04:37:05;37.60;;;18.23;;
56949;SDS011;74437;50.080;19.924;2024-03-02T04:39:31;41.10;;;17.85;;
56949;SDS011;74437;50.080;19.924;2024-03-02T04:41:56;35.92;;;17.33;;
56949;SDS011;74437;50.080;19.924;2024-03-02T04:44:22;38.72;;;17.80;;
56949;SDS011;74437;50.080;19.924;2024-03-02T04:46:47;36.92;;;18.38;;
56949;SDS011;74437;50.080;19.924;2024-03-02T04:49:12;41.72;;;17.13;;
56949;SDS011;74437;50.080;19.924;2024-03-02T04:51:38;39.65;;;17.48;;
56949;SDS011;74437;50.080;19.924;2024-03-02T04:54:03;35.28;;;16.73;;
56949;SDS011;74437;50.080;19.924;2024-03-02T04:56:29;36.67;;;17.45;;
56949;SDS011;74437;50.080;19.924;2024-03-02T04:58:57;32.55;;;15.75;;
56949;SDS011;74437;50.080;19.924;2024-03-02T05:01:22;39.47;;;17.42;;
56949;SDS011;74437;50.080;19.924;2024-03-02T05:03:48;40.03;;;16.90;;
56949;SDS011;74437;50.080;19.924;2024-03-02T05:06:13;38.30;;;18.45;;
56949;SDS011;74437;50.080;19.924;2024-03-02T05:08:38;38.67;;;17.83;;
56949;SDS011;74437;50.080;19.924;2024-03-02T05:11:04;38.58;;;17.52;;
56949;SDS011;74437;50.080;19.924;2024-03-02T05:13:47;38.92;;;17.55;;
56949;SDS011;74437;50.080;19.924;2024-03-02T05:16:13;34.25;;;17.38;;
56949;SDS011;74437;50.080;19.924;2024-03-02T05:18:38;31.98;;;15.48;;
56949;SDS011;74437;50.080;19.924;2024-03-02T05:21:05;36.78;;;16.50;;
56949;SDS011;74437;50.080;19.924;2024-03-02T05:23:30;35.58;;;17.30;;
56949;SDS011;74437;50.080;19.924;2024-03-02T05:25:56;38.28;;;16.27;;
56949;SDS011;74437;50.080;19.924;2024-03-02T05:28:21;34.40;;;16.73;;
56949;SDS011;74437;50.080;19.924;2024-03-02T05:30:46;38.55;;;17.48;;
56949;SDS011;74437;50.080;19.924;2024-03-02T05:33:12;39.05;;;16.75;;
56949;SDS011;74437;50.080;19.924;2024-03-02T05:35:37;34.60;;;16.67;;
56949;SDS011;74437;50.080;19.924;2024-03-02T05:38:03;36.40;;;16.60;;
56949;SDS011;74437;50.080;19.924;2024-03-02T05:40:28;40.08;;;16.73;;
56949;SDS011;74437;50.080;19.924;2024-03-02T05:42:53;38.42;;;18.50;;
56949;SDS011;74437;50.080;19.924;2024-03-02T05:45:19;36.38;;;16.48;;
56949;SDS011;74437;50.080;19.924;2024-03-02T05:47:44;35.50;;;16.58;;
56949;SDS011;74437;50.080;19.924;2024-03-02T05:50:09;35.65;;;16.13;;
56949;SDS011;74437;50.080;19.924;2024-03-02T05:52:35;43.13;;;17.90;;
56949;SDS011;74437;50.080;19.924;2024-03-02T05:55:00;33.85;;;17.27;;
56949;SDS011;74437;50.080;19.924;2024-03-02T05:57:25;36.22;;;15.93;;
56949;SDS011;74437;50.080;19.924;2024-03-02T06:00:10;37.60;;;16.98;;
56949;SDS011;74437;50.080;19.924;2024-03-02T06:02:39;32.20;;;16.65;;
56949;SDS011;74437;50.080;19.924;2024-03-02T06:05:05;35.03;;;16.75;;
56949;SDS011;74437;50.080;19.924;2024-03-02T06:07:32;32.15;;;15.25;;
56949;SDS011;74437;50.080;19.924;2024-03-02T06:09:57;34.72;;;17.15;;
56949;SDS011;74437;50.080;19.924;2024-03-02T06:12:23;38.28;;;17.30;;
56949;SDS011;74437;50.080;19.924;2024-03-02T06:14:49;39.40;;;17.55;;
56949;SDS011;74437;50.080;19.924;2024-03-02T06:17:14;38.13;;;17.05;;
56949;SDS011;74437;50.080;19.924;2024-03-02T06:19:39;44.22;;;17.70;;
56949;SDS011;74437;50.080;19.924;2024-03-02T06:22:05;43.67;;;19.33;;
56949;SDS011;74437;50.080;19.924;2024-03-02T06:24:31;34.60;;;17.65;;
56949;SDS011;74437;50.080;19.924;2024-03-02T06:26:56;51.13;;;24.95;;
56949;SDS011;74437;50.080;19.924;2024-03-02T06:29:21;35.47;;;17.75;;
56949;SDS011;74437;50.080;19.924;2024-03-02T06:31:47;37.13;;;16.08;;
56949;SDS011;74437;50.080;19.924;2024-03-02T06:34:12;37.67;;;17.48;;
56949;SDS011;74437;50.080;19.924;2024-03-02T06:36:38;34.92;;;16.42;;
56949;SDS011;74437;50.080;19.924;2024-03-02T06:39:03;34.85;;;16.75;;
56949;SDS011;74437;50.080;19.924;2024-03-02T06:41:29;33.88;;;16.80;;
56949;SDS011;74437;50.080;19.924;2024-03-02T06:43:54;39.58;;;17.40;;
56949;SDS011;74437;50.080;19.924;2024-03-02T06:46:24;37.78;;;16.80;;
56949;SDS011;74437;50.080;19.924;2024-03-02T06:48:50;33.90;;;15.88;;
56949;SDS011;74437;50.080;19.924;2024-03-02T06:51:15;39.17;;;18.08;;
56949;SDS011;74437;50.080;19.924;2024-03-02T06:53:41;33.88;;;16.83;;
56949;SDS011;74437;50.080;19.924;2024-03-02T06:56:06;34.08;;;16.48;;
56949;SDS011;74437;50.080;19.924;2024-03-02T06:58:33;42.42;;;17.23;;
56949;SDS011;74437;50.080;19.924;2024-03-02T07:00:58;33.20;;;16.48;;
56949;SDS011;74437;50.080;19.924;2024-03-02T07:03:25;34.45;;;17.17;;
56949;SDS011;74437;50.080;19.924;2024-03-02T07:05:50;33.03;;;15.70;;
56949;SDS011;74437;50.080;19.924;2024-03-02T07:08:16;37.75;;;17.98;;
56949;SDS011;74437;50.080;19.924;2024-03-02T07:10:41;36.97;;;17.67;;
56949;SDS011;74437;50.080;19.924;2024-03-02T07:13:06;34.88;;;17.23;;
56949;SDS011;74437;50.080;19.924;2024-03-02T07:15:32;32.45;;;16.38;;
56949;SDS011;74437;50.080;19.924;2024-03-02T07:18:16;43.65;;;19.67;;
56949;SDS011;74437;50.080;19.924;2024-03-02T07:20:41;36.90;;;17.63;;
56949;SDS011;74437;50.080;19.924;2024-03-02T07:23:06;37.80;;;17.55;;
56949;SDS011;74437;50.080;19.924;2024-03-02T07:25:32;34.65;;;16.92;;
56949;SDS011;74437;50.080;19.924;2024-03-02T07:27:57;32.72;;;16.80;;
56949;SDS011;74437;50.080;19.924;2024-03-02T07:30:23;35.28;;;16.83;;
56949;SDS011;74437;50.080;19.924;2024-03-02T07:32:49;33.90;;;17.33;;
56949;SDS011;74437;50.080;19.924;2024-03-02T07:35:16;32.95;;;17.00;;
56949;SDS011;74437;50.080;19.924;2024-03-02T07:37:41;37.08;;;16.88;;
56949;SDS011;74437;50.080;19.924;2024-03-02T07:40:07;29.83;;;15.85;;
56949;SDS011;74437;50.080;19.924;2024-03-02T07:42:39;29.52;;;16.27;;
56949;SDS011;74437;50.080;19.924;2024-03-02T07:45:05;36.47;;;17.55;;
56949;SDS011;74437;50.080;19.924;2024-03-02T07:47:32;32.47;;;16.58;;
56949;SDS011;74437;50.080;19.924;2024-03-02T07:49:59;33.00;;;16.55;;
56949;SDS011;74437;50.080;19.924;2024-03-02T07:52:24;36.60;;;17.70;;
56949;SDS011;74437;50.080;19.924;2024-03-02T07:54:49;36.92;;;16.48;;
56949;SDS011;74437;50.080;19.924;2024-03-02T07:57:15;37.28;;;16.73;;
56949;SDS011;74437;50.080;19.924;2024-03-02T07:59:40;30.45;;;16.17;;
56949;SDS011;74437;50.080;19.924;2024-03-02T08:02:05;33.22;;;15.38;;
56949;SDS011;74437;50.080;19.924;2024-03-02T08:04:32;31.38;;;15.77;;
56949;SDS011;74437;50.080;19.924;2024-03-02T08:06:57;37.15;;;16.67;;
56949;SDS011;74437;50.080;19.924;2024-03-02T08:09:22;34.97;;;16.50;;
56949;SDS011;74437;50.080;19.924;2024-03-02T08:11:48;32.85;;;16.05;;
56949;SDS011;74437;50.080;19.924;2024-03-02T08:14:14;31.52;;;16.50;;
56949;SDS011;74437;50.080;19.924;2024-03-02T08:16:39;34.28;;;16.48;;
56949;SDS011;74437;50.080;19.924;2024-03-02T08:19:05;31.95;;;15.82;;
56949;SDS011;74437;50.080;19.924;2024-03-02T08:21:30;33.97;;;16.05;;
56949;SDS011;74437;50.080;19.924;2024-03-02T08:23:57;30.35;;;16.33;;
56949;SDS011;74437;50.080;19.924;2024-03-02T08:26:23;33.67;;;17.10;;
56949;SDS011;74437;50.080;19.924;2024-03-02T08:28:48;36.50;;;15.80;;
56949;SDS011;74437;50.080;19.924;2024-03-02T08:31:14;35.28;;;16.08;;
56949;SDS011;74437;50.080;19.924;2024-03-02T08:33:39;36.15;;;15.23;;
56949;SDS011;74437;50.080;19.924;2024-03-02T08:36:05;29.77;;;15.18;;
56949;SDS011;74437;50.080;19.924;2024-03-02T08:38:31;32.95;;;15.32;;
56949;SDS011;74437;50.080;19.924;2024-03-02T08:40:56;32.60;;;15.90;;
56949;SDS011;74437;50.080;19.924;2024-03-02T08:43:22;29.50;;;14.80;;
56949;SDS011;74437;50.080;19.924;2024-03-02T08:45:47;28.55;;;14.77;;
56949;SDS011;74437;50.080;19.924;2024-03-02T08:48:13;32.40;;;15.85;;
56949;SDS011;74437;50.080;19.924;2024-03-02T08:50:38;37.83;;;17.98;;
56949;SDS011;74437;50.080;19.924;2024-03-02T08:53:04;31.13;;;16.38;;
56949;SDS011;74437;50.080;19.924;2024-03-02T08:55:29;40.78;;;17.13;;
56949;SDS011;74437;50.080;19.924;2024-03-02T08:57:55;31.35;;;15.50;;
56949;SDS011;74437;50.080;19.924;2024-03-02T09:00:21;29.98;;;15.45;;
56949;SDS011;74437;50.080;19.924;2024-03-02T09:02:47;31.95;;;15.05;;
56949;SDS011;74437;50.080;19.924;2024-03-02T09:05:12;32.33;;;16.48;;
56949;SDS011;74437;50.080;19.924;2024-03-02T09:07:38;33.58;;;15.75;;
56949;SDS011;74437;50.080;19.924;2024-03-02T09:10:04;34.13;;;17.48;;
56949;SDS011;74437;50.080;19.924;2024-03-02T09:12:30;38.20;;;16.70;;
56949;SDS011;74437;50.080;19.924;2024-03-02T09:14:55;30.17;;;15.48;;
56949;SDS011;74437;50.080;19.924;2024-03-02T09:17:21;31.17;;;16.55;;
56949;SDS011;74437;50.080;19.924;2024-03-02T09:19:46;34.25;;;15.82;;
56949;SDS011;74437;50.080;19.924;2024-03-02T09:22:12;30.38;;;16.48;;
56949;SDS011;74437;50.080;19.924;2024-03-02T09:24:38;34.17;;;16.35;;
56949;SDS011;74437;50.080;19.924;2024-03-02T09:27:03;36.65;;;16.55;;
56949;SDS011;74437;50.080;19.924;2024-03-02T09:29:29;31.63;;;15.38;;
56949;SDS011;74437;50.080;19.924;2024-03-02T09:31:54;30.83;;;15.90;;
56949;SDS011;74437;50.080;19.924;2024-03-02T09:34:20;32.92;;;16.20;;
56949;SDS011;74437;50.080;19.924;2024-03-02T09:36:46;33.15;;;16.75;;
56949;SDS011;74437;50.080;19.924;2024-03-02T09:39:11;33.80;;;15.90;;
56949;SDS011;74437;50.080;19.924;2024-03-02T09:41:37;35.92;;;17.25;;
56949;SDS011;74437;50.080;19.924;2024-03-02T09:44:03;31.88;;;16.38;;
56949;SDS011;74437;50.080;19.924;2024-03-02T09:46:29;32.85;;;15.68;;
56949;SDS011;74437;50.080;19.924;2024-03-02T09:48:55;33.53;;;17.52;;
56949;SDS011;74437;50.080;19.924;2024-03-02T09:51:20;34.60;;;16.40;;
56949;SDS011;74437;50.080;19.924;2024-03-02T09:53:46;40.90;;;16.70;;
56949;SDS011;74437;50.080;19.924;2024-03-02T09:56:12;33.78;;;17.38;;
56949;SDS011;74437;50.080;19.924;2024-03-02T09:58:38;35.72;;;17.33;;
56949;SDS011;74437;50.080;19.924;2024-03-02T10:01:07;36.20;;;17.63;;
56949;SDS011;74437;50.080;19.924;2024-03-02T10:03:33;33.47;;;16.92;;
56949;SDS011;74437;50.080;19.924;2024-03-02T10:08:43;36.28;;;17.92;;
56949;SDS011;74437;50.080;19.924;2024-03-02T10:11:09;36.75;;;18.13;;
56949;SDS011;74437;50.080;19.924;2024-03-02T10:13:34;41.55;;;18.10;;
56949;SDS011;74437;50.080;19.924;2024-03-02T10:16:00;36.35;;;17.00;;
56949;SDS011;74437;50.080;19.924;2024-03-02T10:18:36;32.92;;;18.02;;
56949;SDS011;74437;50.080;19.924;2024-03-02T10:21:14;33.10;;;17.08;;
56949;SDS011;74437;50.080;19.924;2024-03-02T10:23:40;40.03;;;18.92;;
56949;SDS011;74437;50.080;19.924;2024-03-02T10:26:26;39.88;;;19.15;;
56949;SDS011;74437;50.080;19.924;2024-03-02T10:28:51;36.83;;;18.88;;
56949;SDS011;74437;50.080;19.924;2024-03-02T10:31:24;39.15;;;19.13;;
56949;SDS011;74437;50.080;19.924;2024-03-02T10:33:52;38.45;;;18.48;;
56949;SDS011;74437;50.080;19.924;2024-03-02T10:36:23;36.88;;;18.45;;
56949;SDS011;74437;50.080;19.924;2024-03-02T10:38:50;37.50;;;18.83;;
56949;SDS011;74437;50.080;19.924;2024-03-02T10:41:19;38.83;;;18.73;;
56949;SDS011;74437;50.080;19.924;2024-03-02T10:43:48;35.60;;;18.80;;
56949;SDS011;74437;50.080;19.924;2024-03-02T10:46:16;36.92;;;19.30;;
56949;SDS011;74437;50.080;19.924;2024-03-02T10:48:44;35.55;;;19.13;;
56949;SDS011;74437;50.080;19.924;2024-03-02T10:51:11;36.35;;;18.95;;
56949;SDS011;74437;50.080;19.924;2024-03-02T10:53:37;40.67;;;20.05;;
56949;SDS011;74437;50.080;19.924;2024-03-02T10:56:02;39.22;;;19.50;;
56949;SDS011;74437;50.080;19.924;2024-03-02T10:58:32;38.13;;;19.42;;
56949;SDS011;74437;50.080;19.924;2024-03-02T11:01:02;42.45;;;19.73;;
56949;SDS011;74437;50.080;19.924;2024-03-02T11:03:29;37.22;;;19.30;;
56949;SDS011;74437;50.080;19.924;2024-03-02T11:06:00;33.95;;;18.33;;
56949;SDS011;74437;50.080;19.924;2024-03-02T11:08:26;35.80;;;18.02;;
56949;SDS011;74437;50.080;19.924;2024-03-02T11:10:55;35.45;;;18.05;;
56949;SDS011;74437;50.080;19.924;2024-03-02T11:13:33;36.08;;;18.65;;
56949;SDS011;74437;50.080;19.924;2024-03-02T11:16:03;38.70;;;17.65;;
56949;SDS011;74437;50.080;19.924;2024-03-02T11:18:31;38.63;;;18.20;;
56949;SDS011;74437;50.080;19.924;2024-03-02T11:20:58;32.88;;;17.77;;
56949;SDS011;74437;50.080;19.924;2024-03-02T11:23:34;36.33;;;18.40;;
56949;SDS011;74437;50.080;19.924;2024-03-02T11:26:18;31.35;;;16.38;;
56949;SDS011;74437;50.080;19.924;2024-03-02T11:28:45;39.22;;;18.98;;
56949;SDS011;74437;50.080;19.924;2024-03-02T11:31:11;35.95;;;18.70;;
56949;SDS011;74437;50.080;19.924;2024-03-02T11:33:36;32.60;;;17.83;;
56949;SDS011;74437;50.080;19.924;2024-03-02T11:36:02;39.03;;;16.92;;
56949;SDS011;74437;50.080;19.924;2024-03-02T11:38:29;32.80;;;17.33;;
56949;SDS011;74437;50.080;19.924;2024-03-02T11:40:56;37.17;;;17.50;;
56949;SDS011;74437;50.080;19.924;2024-03-02T11:43:22;38.65;;;18.88;;
56949;SDS011;74437;50.080;19.924;2024-03-02T11:45:48;37.28;;;18.08;;
56949;SDS011;74437;50.080;19.924;2024-03-02T11:48:15;34.28;;;16.75;;
56949;SDS011;74437;50.080;19.924;2024-03-02T11:50:41;34.10;;;17.40;;
56949;SDS011;74437;50.080;19.924;2024-03-02T11:53:14;35.78;;;18.13;;
56949;SDS011;74437;50.080;19.924;2024-03-02T11:55:40;34.22;;;18.10;;
56949;SDS011;74437;50.080;19.924;2024-03-02T11:58:06;37.20;;;18.30;;
56949;SDS011;74437;50.080;19.924;2024-03-02T12:00:32;32.67;;;18.33;;
56949;SDS011;74437;50.080;19.924;2024-03-02T12:05:27;36.45;;;18.35;;
56949;SDS011;74437;50.080;19.924;2024-03-02T12:08:00;35.25;;;18.20;;
56949;SDS011;74437;50.080;19.924;2024-03-02T12:10:30;32.20;;;17.77;;
56949;SDS011;74437;50.080;19.924;2024-03-02T12:13:02;34.42;;;18.17;;
56949;SDS011;74437;50.080;19.924;2024-03-02T12:15:29;39.10;;;18.73;;
56949;SDS011;74437;50.080;19.924;2024-03-02T12:20:23;32.25;;;16.58;;
56949;SDS011;74437;50.080;19.924;2024-03-02T12:22:50;36.58;;;17.73;;
56949;SDS011;74437;50.080;19.924;2024-03-02T12:25:17;34.47;;;17.55;;
56949;SDS011;74437;50.080;19.924;2024-03-02T12:27:44;31.90;;;17.52;;
56949;SDS011;74437;50.080;19.924;2024-03-02T12:30:11;38.15;;;18.85;;
56949;SDS011;74437;50.080;19.924;2024-03-02T12:32:38;36.53;;;18.85;;
56949;SDS011;74437;50.080;19.924;2024-03-02T12:35:05;38.47;;;19.25;;
56949;SDS011;74437;50.080;19.924;2024-03-02T12:37:31;39.83;;;18.30;;
56949;SDS011;74437;50.080;19.924;2024-03-02T12:39:56;40.88;;;19.88;;
56949;SDS011;74437;50.080;19.924;2024-03-02T12:42:21;44.95;;;22.23;;
56949;SDS011;74437;50.080;19.924;2024-03-02T12:47:19;50.30;;;24.45;;
56949;SDS011;74437;50.080;19.924;2024-03-02T12:49:44;56.17;;;26.23;;
56949;SDS011;74437;50.080;19.924;2024-03-02T12:52:11;54.08;;;27.50;;
56949;SDS011;74437;50.080;19.924;2024-03-02T12:54:38;59.67;;;29.42;;
56949;SDS011;74437;50.080;19.924;2024-03-02T12:57:03;55.75;;;28.40;;
56949;SDS011;74437;50.080;19.924;2024-03-02T12:59:29;53.60;;;29.15;;
56949;SDS011;74437;50.080;19.924;2024-03-02T13:01:54;53.40;;;28.50;;
56949;SDS011;74437;50.080;19.924;2024-03-02T13:04:24;54.28;;;28.85;;
56949;SDS011;74437;50.080;19.924;2024-03-02T13:06:51;52.25;;;27.67;;
56949;SDS011;74437;50.080;19.924;2024-03-02T13:09:17;47.15;;;25.40;;
56949;SDS011;74437;50.080;19.924;2024-03-02T13:11:43;51.45;;;26.63;;
56949;SDS011;74437;50.080;19.924;2024-03-02T13:14:10;50.28;;;25.80;;
56949;SDS011;74437;50.080;19.924;2024-03-02T13:16:39;47.67;;;24.17;;
56949;SDS011;74437;50.080;19.924;2024-03-02T13:19:08;47.63;;;23.60;;
56949;SDS011;74437;50.080;19.924;2024-03-02T13:21:34;42.92;;;23.00;;
56949;SDS011;74437;50.080;19.924;2024-03-02T13:24:00;45.35;;;23.08;;
56949;SDS011;74437;50.080;19.924;2024-03-02T13:26:26;45.15;;;23.88;;
56949;SDS011;74437;50.080;19.924;2024-03-02T13:28:52;52.45;;;23.95;;
56949;SDS011;74437;50.080;19.924;2024-03-02T13:31:18;47.42;;;24.00;;
56949;SDS011;74437;50.080;19.924;2024-03-02T13:33:43;42.58;;;23.40;;
56949;SDS011;74437;50.080;19.924;2024-03-02T13:36:08;43.55;;;22.23;;
56949;SDS011;74437;50.080;19.924;2024-03-02T13:38:34;49.92;;;23.95;;
56949;SDS011;74437;50.080;19.924;2024-03-02T13:41:00;47.45;;;23.92;;
56949;SDS011;74437;50.080;19.924;2024-03-02T13:43:26;47.60;;;22.92;;
56949;SDS011;74437;50.080;19.924;2024-03-02T13:45:52;45.22;;;22.60;;
56949;SDS011;74437;50.080;19.924;2024-03-02T13:48:18;46.05;;;24.67;;
56949;SDS011;74437;50.080;19.924;2024-03-02T13:50:44;40.78;;;21.48;;
56949;SDS011;74437;50.080;19.924;2024-03-02T13:53:10;42.97;;;23.05;;
56949;SDS011;74437;50.080;19.924;2024-03-02T13:55:36;45.30;;;22.73;;
56949;SDS011;74437;50.080;19.924;2024-03-02T13:58:02;47.10;;;23.45;;
56949;SDS011;74437;50.080;19.924;2024-03-02T14:00:28;43.22;;;22.15;;
56949;SDS011;74437;50.080;19.924;2024-03-02T14:02:55;41.15;;;21.50;;
56949;SDS011;74437;50.080;19.924;2024-03-02T14:05:21;43.60;;;21.00;;
56949;SDS011;74437;50.080;19.924;2024-03-02T14:07:46;42.22;;;20.27;;
56949;SDS011;74437;50.080;19.924;2024-03-02T14:10:12;36.47;;;19.60;;
56949;SDS011;74437;50.080;19.924;2024-03-02T14:12:37;38.35;;;20.27;;
56949;SDS011;74437;50.080;19.924;2024-03-02T14:15:03;35.13;;;18.67;;
56949;SDS011;74437;50.080;19.924;2024-03-02T14:17:29;42.30;;;20.50;;
56949;SDS011;74437;50.080;19.924;2024-03-02T14:19:57;36.55;;;19.65;;
56949;SDS011;74437;50.080;19.924;2024-03-02T14:22:23;34.42;;;18.70;;